createdAt,value
2022-09-20T00:00:22.645Z,63.50
2022-09-20T00:01:05.690Z,62.98
2022-09-20T00:01:37.991Z,63.28
2022-09-20T00:02:12.702Z,63.60
2022-09-20T00:02:44.908Z,63.52
2022-09-20T00:03:17.850Z,63.55
2022-09-20T00:03:54.402Z,63.30
2022-09-20T00:04:26.528Z,63.75
2022-09-20T00:04:58.882Z,63.73
2022-09-20T00:05:36.706Z,63.30
2022-09-20T00:06:11.191Z,63.29
2022-09-20T00:06:45.859Z,63.18
2022-09-20T00:07:17.958Z,63.75
2022-09-20T00:07:52.683Z,63.36
2022-09-20T00:08:27.519Z,63.93
2022-09-20T00:09:01.479Z,63.66
2022-09-20T00:09:36.332Z,63.58
2022-09-20T00:10:09.172Z,63.52
2022-09-20T00:10:41.783Z,63.85
2022-09-20T00:11:18.687Z,63.51
2022-09-20T00:11:52.478Z,63.97
2022-09-20T00:12:24.622Z,63.50
2022-09-20T00:12:59.378Z,63.97
2022-09-20T00:13:31.620Z,63.38
2022-09-20T00:14:06.223Z,63.74
2022-09-20T00:14:40.901Z,63.95
2022-09-20T00:15:13.044Z,63.54
2022-09-20T00:15:46.328Z,63.71
2022-09-20T00:16:24.116Z,63.63
2022-09-20T00:16:56.349Z,63.91
2022-09-20T00:17:28.590Z,64.01
2022-09-20T00:18:03.468Z,63.84
2022-09-20T00:18:36.415Z,63.94
2022-09-20T00:19:09.477Z,63.66
2022-09-20T00:19:44.318Z,63.73
2022-09-20T00:20:16.691Z,63.99
2022-09-20T00:20:50.598Z,64.15
2022-09-20T00:21:27.607Z,63.98
2022-09-20T00:21:59.723Z,63.81
2022-09-20T00:22:31.938Z,64.38
2022-09-20T00:23:06.647Z,63.88
2022-09-20T00:23:41.302Z,64.11
2022-09-20T00:24:13.514Z,64.33
2022-09-20T00:24:48.845Z,64.01
2022-09-20T00:25:23.766Z,64.25
2022-09-20T00:25:57.277Z,64.04
2022-09-20T00:26:30.097Z,64.49
2022-09-20T00:27:04.801Z,64.31
2022-09-20T00:27:36.909Z,64.41
2022-09-20T00:28:10.701Z,64.53
2022-09-20T00:28:47.269Z,64.40
2022-09-20T00:29:19.474Z,64.38
2022-09-20T00:29:51.579Z,64.28
2022-09-20T00:30:26.303Z,64.68
2022-09-20T00:30:58.438Z,64.90
2022-09-20T00:31:30.742Z,64.99
2022-09-20T00:32:05.795Z,64.47
2022-09-20T00:32:38.116Z,64.87
2022-09-20T00:33:10.239Z,64.33
2022-09-20T00:33:57.616Z,64.82
2022-09-20T00:34:44.825Z,64.49
2022-09-20T00:35:19.764Z,64.53
2022-09-20T00:35:51.855Z,64.95
2022-09-20T00:36:24.009Z,64.57
2022-09-20T00:36:56.187Z,64.78
2022-09-20T00:37:30.904Z,64.60
2022-09-20T00:38:03.034Z,64.78
2022-09-20T00:38:37.724Z,64.69
2022-09-20T00:39:15.568Z,64.74
2022-09-20T00:39:47.684Z,64.79
2022-09-20T00:40:22.349Z,64.81
2022-09-20T00:40:57.019Z,64.24
2022-09-20T00:41:30.454Z,64.69
2022-09-20T00:42:02.649Z,64.29
2022-09-20T00:42:37.486Z,64.57
2022-09-20T00:43:14.980Z,64.52
2022-09-20T00:43:47.461Z,64.54
2022-09-20T00:44:56.613Z,64.58
2022-09-20T00:45:30.647Z,64.60
2022-09-20T00:46:06.918Z,64.70
2022-09-20T00:46:42.721Z,64.55
2022-09-20T00:47:22.692Z,64.94
2022-09-20T00:48:00.229Z,64.53
2022-09-20T00:48:34.519Z,64.79
2022-09-20T00:49:12.877Z,64.84
2022-09-20T00:49:47.955Z,64.69
2022-09-20T00:50:29.897Z,64.67
2022-09-20T00:51:08.427Z,65.12
2022-09-20T00:51:45.996Z,65.04
2022-09-20T00:52:18.997Z,64.92
2022-09-20T00:52:56.627Z,64.79
2022-09-20T00:53:34.388Z,65.15
2022-09-20T00:54:12.831Z,65.45
2022-09-20T00:54:46.813Z,65.19
2022-09-20T00:55:23.061Z,65.27
2022-09-20T00:55:58.325Z,65.58
2022-09-20T00:56:34.130Z,65.50
2022-09-20T00:57:08.987Z,65.69
2022-09-20T00:57:42.421Z,65.83
2022-09-20T00:58:15.366Z,65.82
2022-09-20T00:58:59.283Z,66.17
2022-09-20T00:59:34.803Z,65.96
2022-09-20T01:00:10.511Z,65.98
2022-09-20T01:00:47.200Z,66.45
2022-09-20T01:01:19.505Z,66.51
2022-09-20T01:01:56.574Z,66.56
2022-09-20T01:02:35.142Z,66.37
2022-09-20T01:03:10.959Z,66.54
2022-09-20T01:03:46.336Z,66.95
2022-09-20T01:04:23.194Z,66.90
2022-09-20T01:04:57.744Z,66.79
2022-09-20T01:05:32.688Z,67.03
2022-09-20T01:06:10.087Z,67.75
2022-09-20T01:06:45.122Z,67.42
2022-09-20T01:07:25.072Z,67.76
2022-09-20T01:07:57.942Z,67.74
2022-09-20T01:08:31.883Z,67.80
2022-09-20T01:09:11.144Z,68.31
2022-09-20T01:09:43.269Z,67.96
2022-09-20T01:10:15.366Z,68.62
2022-09-20T01:10:50.360Z,68.57
2022-09-20T01:11:22.584Z,68.66
2022-09-20T01:11:55.826Z,68.45
2022-09-20T01:12:34.734Z,68.61
2022-09-20T01:13:07.229Z,68.87
2022-09-20T01:13:39.349Z,68.57
2022-09-20T01:14:16.802Z,68.52
2022-09-20T01:14:51.769Z,68.69
2022-09-20T01:15:27.919Z,68.70
2022-09-20T01:16:05.263Z,68.87
2022-09-20T01:16:38.105Z,68.72
2022-09-20T01:17:12.580Z,68.93
2022-09-20T01:17:51.332Z,68.81
2022-09-20T01:18:24.251Z,69.23
2022-09-20T01:18:59.678Z,69.20
2022-09-20T01:19:42.802Z,69.02
2022-09-20T01:20:21.029Z,69.35
2022-09-20T01:20:53.434Z,69.15
2022-09-20T01:21:29.105Z,69.20
2022-09-20T01:22:06.823Z,68.90
2022-09-20T01:22:49.116Z,69.39
2022-09-20T01:23:48.245Z,69.45
2022-09-20T01:24:28.478Z,69.20
2022-09-20T01:25:08.132Z,69.11
2022-09-20T01:26:14.872Z,69.49
2022-09-20T01:27:02.200Z,69.49
2022-09-20T01:27:51.365Z,69.35
2022-09-20T01:28:24.076Z,69.67
2022-09-20T01:29:06.074Z,69.38
2022-09-20T01:29:55.458Z,69.79
2022-09-20T01:30:36.947Z,69.48
2022-09-20T01:31:18.404Z,69.93
2022-09-20T01:31:54.717Z,69.58
2022-09-20T01:32:40.432Z,69.50
2022-09-20T01:33:23.586Z,69.86
2022-09-20T01:34:01.059Z,69.69
2022-09-20T01:34:39.314Z,69.87
2022-09-20T01:35:12.414Z,69.85
2022-09-20T01:35:48.824Z,69.62
2022-09-20T01:36:27.475Z,70.14
2022-09-20T01:37:06.764Z,69.81
2022-09-20T01:37:56.295Z,70.06
2022-09-20T01:38:40.211Z,69.80
2022-09-20T01:39:20.702Z,70.26
2022-09-20T01:40:04.808Z,70.17
2022-09-20T01:40:44.989Z,70.29
2022-09-20T01:41:24.071Z,70.31
2022-09-20T01:42:01.593Z,70.50
2022-09-20T01:42:37.947Z,70.62
2022-09-20T01:43:18.800Z,70.40
2022-09-20T01:43:57.731Z,70.22
2022-09-20T01:44:38.672Z,70.38
2022-09-20T01:45:19.995Z,70.61
2022-09-20T01:45:56.269Z,70.68
2022-09-20T01:46:31.569Z,70.81
2022-09-20T01:47:11.242Z,70.42
2022-09-20T01:47:54.107Z,70.64
2022-09-20T01:48:34.038Z,70.46
2022-09-20T01:49:32.302Z,71.12
2022-09-20T01:50:17.091Z,70.70
2022-09-20T01:51:11.354Z,70.49
2022-09-20T01:52:19.191Z,70.83
2022-09-20T01:53:40.687Z,70.93
2022-09-20T01:54:50.617Z,70.88
2022-09-20T01:55:51.851Z,71.03
2022-09-20T01:56:45.950Z,71.17
2022-09-20T01:57:47.915Z,71.06
2022-09-20T01:59:19.432Z,71.01
2022-09-20T01:59:59.147Z,71.23
2022-09-20T02:00:41.878Z,70.75
2022-09-20T02:01:39.251Z,71.19
2022-09-20T02:02:36.646Z,71.04
2022-09-20T02:03:38.763Z,70.53
2022-09-20T02:04:30.222Z,70.70
2022-09-20T02:05:30.803Z,70.77
2022-09-20T02:06:14.434Z,70.69
2022-09-20T02:07:06.158Z,70.96
2022-09-20T02:08:00.035Z,71.13
2022-09-20T02:09:00.442Z,70.92
2022-09-20T02:09:57.056Z,71.18
2022-09-20T02:10:47.802Z,70.90
2022-09-20T02:11:21.701Z,71.23
2022-09-20T02:12:12.149Z,71.22
2022-09-20T02:12:56.404Z,71.07
2022-09-20T02:13:31.379Z,71.03
2022-09-20T02:14:30.123Z,71.02
2022-09-20T02:15:17.890Z,71.35
2022-09-20T02:16:22.692Z,71.65
2022-09-20T02:17:00.311Z,72.20
2022-09-20T02:17:46.551Z,71.85
2022-09-20T02:18:36.351Z,72.02
2022-09-20T02:19:30.442Z,72.45
2022-09-20T02:20:19.203Z,72.37
2022-09-20T02:20:58.023Z,72.20
2022-09-20T02:21:39.159Z,72.39
2022-09-20T02:22:21.375Z,72.14
2022-09-20T02:23:23.750Z,72.26
2022-09-20T02:24:09.626Z,72.42
2022-09-20T02:24:53.562Z,72.14
2022-09-20T02:25:43.675Z,72.42
2022-09-20T02:26:35.859Z,72.13
2022-09-20T02:27:18.508Z,72.18
2022-09-20T02:28:07.452Z,72.12
2022-09-20T02:28:53.196Z,72.30
2022-09-20T02:29:38.171Z,72.22
2022-09-20T02:30:22.299Z,72.39
2022-09-20T02:31:03.258Z,72.27
2022-09-20T02:32:02.515Z,72.33
2022-09-20T02:32:54.829Z,72.84
2022-09-20T02:33:55.495Z,72.59
2022-09-20T02:34:46.613Z,73.03
2022-09-20T02:35:35.875Z,72.88
2022-09-20T02:36:30.150Z,72.98
2022-09-20T02:37:18.648Z,73.08
2022-09-20T02:38:21.163Z,73.12
2022-09-20T02:39:03.019Z,73.33
2022-09-20T02:39:37.540Z,73.06
2022-09-20T02:40:27.551Z,73.17
2022-09-20T02:41:25.882Z,73.37
2022-09-20T02:42:09.864Z,73.54
2022-09-20T02:42:47.955Z,73.62
2022-09-20T02:43:31.694Z,73.70
2022-09-20T02:44:16.923Z,74.01
2022-09-20T02:45:03.079Z,73.76
2022-09-20T02:45:45.027Z,74.26
2022-09-20T02:46:24.511Z,74.36
2022-09-20T02:47:07.840Z,74.33
2022-09-20T02:47:45.104Z,74.10
2022-09-20T02:48:24.077Z,73.98
2022-09-20T02:49:02.823Z,74.28
2022-09-20T02:49:48.823Z,73.93
2022-09-20T02:50:35.437Z,73.89
2022-09-20T02:51:21.131Z,74.10
2022-09-20T02:51:58.300Z,74.06
2022-09-20T02:52:39.443Z,74.37
2022-09-20T02:53:29.721Z,74.10
2022-09-20T02:54:06.955Z,73.83
2022-09-20T02:54:51.838Z,73.86
2022-09-20T02:55:35.158Z,74.22
2022-09-20T02:56:17.759Z,73.92
2022-09-20T02:57:01.420Z,73.88
2022-09-20T02:57:42.983Z,74.22
2022-09-20T02:58:30.966Z,74.05
2022-09-20T02:59:13.859Z,74.11
2022-09-20T02:59:54.247Z,74.15
2022-09-20T03:00:32.954Z,73.90
2022-09-20T03:01:20.369Z,73.71
2022-09-20T03:02:04.886Z,74.01
2022-09-20T03:02:51.502Z,73.89
2022-09-20T03:03:38.034Z,73.88
2022-09-20T03:04:23.697Z,74.01
2022-09-20T03:05:17.175Z,74.08
2022-09-20T03:05:58.802Z,74.18
2022-09-20T03:06:40.318Z,74.29
2022-09-20T03:07:24.185Z,73.87
2022-09-20T03:08:11.821Z,73.83
2022-09-20T03:08:54.792Z,73.90
2022-09-20T03:09:36.967Z,73.82
2022-09-20T03:10:18.782Z,73.95
2022-09-20T03:10:58.164Z,73.95
2022-09-20T03:11:39.703Z,73.75
2022-09-20T03:12:26.482Z,74.04
2022-09-20T03:13:17.814Z,73.71
2022-09-20T03:14:01.887Z,73.68
2022-09-20T03:14:38.000Z,74.21
2022-09-20T03:15:25.867Z,73.93
2022-09-20T03:16:08.974Z,74.29
2022-09-20T03:16:55.297Z,74.34
2022-09-20T03:17:36.658Z,74.14
2022-09-20T03:18:14.059Z,74.11
2022-09-20T03:18:57.805Z,74.46
2022-09-20T03:19:43.629Z,74.75
2022-09-20T03:20:31.718Z,74.26
2022-09-20T03:21:22.758Z,74.64
2022-09-20T03:22:06.196Z,74.83
2022-09-20T03:22:51.431Z,74.50
2022-09-20T03:23:42.326Z,74.41
2022-09-20T03:24:28.742Z,74.46
2022-09-20T03:25:21.433Z,74.55
2022-09-20T03:25:57.508Z,74.01
2022-09-20T03:26:49.716Z,74.11
2022-09-20T03:27:31.701Z,74.11
2022-09-20T03:28:35.757Z,74.10
2022-09-20T03:29:20.542Z,73.92
2022-09-20T03:30:15.310Z,73.65
2022-09-20T03:30:56.424Z,73.12
2022-09-20T03:31:51.736Z,73.42
2022-09-20T03:32:37.256Z,72.85
2022-09-20T03:33:20.088Z,72.94
2022-09-20T03:34:05.149Z,72.66
2022-09-20T03:34:50.897Z,72.49
2022-09-20T03:35:42.555Z,72.16
2022-09-20T03:36:35.252Z,72.21
2022-09-20T03:37:22.594Z,72.05
2022-09-20T03:38:11.504Z,71.59
2022-09-20T03:38:59.315Z,71.49
2022-09-20T03:40:02.100Z,71.28
2022-09-20T03:41:02.818Z,71.46
2022-09-20T03:41:49.930Z,71.42
2022-09-20T03:42:25.837Z,71.13
2022-09-20T03:43:04.744Z,70.96
2022-09-20T03:43:55.169Z,70.95
2022-09-20T03:44:50.747Z,71.22
2022-09-20T03:45:53.415Z,71.25
2022-09-20T03:46:27.786Z,71.08
2022-09-20T03:47:13.793Z,70.99
2022-09-20T03:48:05.588Z,71.30
2022-09-20T03:49:26.215Z,71.35
2022-09-20T03:50:19.835Z,71.27
2022-09-20T03:51:04.607Z,71.64
2022-09-20T03:51:51.758Z,71.54
2022-09-20T03:52:45.000Z,71.29
2022-09-20T03:53:49.165Z,71.71
2022-09-20T03:54:53.852Z,71.96
2022-09-20T03:55:54.791Z,72.19
2022-09-20T03:56:51.084Z,72.24
2022-09-20T03:57:40.334Z,72.02
2022-09-20T03:58:42.827Z,72.89
2022-09-20T03:59:36.296Z,72.43
2022-09-20T04:00:20.999Z,72.57
2022-09-20T04:01:11.288Z,72.73
2022-09-20T04:02:14.800Z,72.96
2022-09-20T04:03:04.528Z,72.39
2022-09-20T04:03:46.154Z,72.44
2022-09-20T04:04:25.886Z,72.61
2022-09-20T04:05:03.191Z,72.40
2022-09-20T04:05:48.209Z,72.67
2022-09-20T04:06:53.545Z,72.54
2022-09-20T04:07:39.107Z,72.72
2022-09-20T04:08:26.425Z,72.53
2022-09-20T04:09:21.052Z,72.72
2022-09-20T04:10:24.277Z,72.89
2022-09-20T04:11:06.154Z,72.72
2022-09-20T04:11:45.016Z,72.60
2022-09-20T04:12:30.919Z,73.10
2022-09-20T04:13:22.095Z,72.92
2022-09-20T04:14:02.047Z,72.92
2022-09-20T04:14:43.482Z,72.96
2022-09-20T04:15:32.536Z,72.98
2022-09-20T04:16:26.252Z,72.81
2022-09-20T04:17:05.986Z,72.79
2022-09-20T04:17:49.803Z,73.14
2022-09-20T04:18:33.891Z,72.62
2022-09-20T04:19:15.208Z,73.04
2022-09-20T04:19:52.612Z,72.70
2022-09-20T04:20:35.718Z,72.64
2022-09-20T04:21:14.090Z,73.04
2022-09-20T04:21:56.332Z,72.91
2022-09-20T04:22:29.666Z,72.64
2022-09-20T04:23:14.869Z,72.49
2022-09-20T04:23:57.983Z,72.86
2022-09-20T04:24:40.854Z,72.96
2022-09-20T04:25:21.646Z,72.69
2022-09-20T04:25:54.186Z,72.65
2022-09-20T04:26:28.741Z,72.43
2022-09-20T04:27:06.839Z,72.53
2022-09-20T04:27:43.557Z,72.38
2022-09-20T04:28:22.143Z,72.31
2022-09-20T04:29:02.131Z,72.53
2022-09-20T04:29:38.379Z,72.91
2022-09-20T04:30:18.466Z,72.40
2022-09-20T04:30:57.525Z,72.65
2022-09-20T04:31:41.464Z,72.51
2022-09-20T04:32:22.269Z,72.26
2022-09-20T04:33:02.194Z,72.65
2022-09-20T04:33:40.190Z,72.62
2022-09-20T04:34:20.937Z,72.39
2022-09-20T04:35:18.418Z,72.56
2022-09-20T04:36:16.139Z,72.68
2022-09-20T04:36:58.260Z,72.65
2022-09-20T04:37:33.582Z,72.62
2022-09-20T04:38:10.775Z,72.28
2022-09-20T04:38:46.448Z,72.43
2022-09-20T04:39:30.707Z,72.19
2022-09-20T04:40:29.819Z,72.61
2022-09-20T04:41:36.311Z,72.32
2022-09-20T04:42:45.585Z,72.82
2022-09-20T04:43:53.862Z,72.48
2022-09-20T04:44:56.543Z,72.73
2022-09-20T04:46:00.291Z,72.58
2022-09-20T04:47:12.059Z,72.99
2022-09-20T04:48:38.259Z,72.95
2022-09-20T04:49:54.858Z,73.19
2022-09-20T04:50:59.909Z,73.07
2022-09-20T04:52:05.892Z,72.78
2022-09-20T04:53:12.431Z,73.09
2022-09-20T04:54:06.640Z,72.74
2022-09-20T04:55:21.097Z,73.25
2022-09-20T04:56:03.174Z,73.09
2022-09-20T04:56:55.238Z,73.03
2022-09-20T04:57:55.724Z,72.85
2022-09-20T04:58:42.324Z,73.02
2022-09-20T04:59:32.273Z,73.40
2022-09-20T05:00:07.499Z,73.41
2022-09-20T05:01:01.244Z,73.22
2022-09-20T05:02:03.740Z,73.07
2022-09-20T05:03:11.299Z,73.44
2022-09-20T05:04:25.867Z,73.25
2022-09-20T05:05:29.808Z,73.13
2022-09-20T05:06:41.351Z,73.08
2022-09-20T05:07:39.400Z,73.17
2022-09-20T05:08:46.869Z,73.02
2022-09-20T05:09:36.911Z,73.26
2022-09-20T05:10:30.872Z,73.35
2022-09-20T05:11:31.295Z,73.40
2022-09-20T05:12:36.182Z,72.88
2022-09-20T05:13:22.157Z,73.02
2022-09-20T05:14:14.131Z,73.11
2022-09-20T05:15:08.709Z,72.62
2022-09-20T05:15:53.154Z,72.74
2022-09-20T05:16:41.967Z,72.66
2022-09-20T05:17:40.159Z,72.68
2022-09-20T05:18:36.671Z,72.65
2022-09-20T05:19:27.507Z,72.61
2022-09-20T05:20:29.528Z,72.32
2022-09-20T05:21:23.299Z,72.45
2022-09-20T05:22:18.489Z,72.03
2022-09-20T05:23:17.380Z,72.50
2022-09-20T05:24:15.909Z,72.56
2022-09-20T05:25:09.339Z,72.53
2022-09-20T05:26:11.664Z,72.94
2022-09-20T05:27:02.737Z,72.41
2022-09-20T05:27:42.324Z,72.59
2022-09-20T05:28:23.111Z,72.61
2022-09-20T05:29:03.723Z,72.65
2022-09-20T05:29:48.226Z,72.97
2022-09-20T05:30:31.609Z,72.50
2022-09-20T05:31:12.728Z,72.54
2022-09-20T05:31:53.154Z,72.43
2022-09-20T05:32:32.094Z,72.88
2022-09-20T05:33:15.476Z,72.76
2022-09-20T05:33:57.529Z,72.74
2022-09-20T05:34:42.574Z,72.62
2022-09-20T05:35:23.119Z,72.70
2022-09-20T05:36:08.211Z,72.68
2022-09-20T05:36:50.079Z,72.56
2022-09-20T05:37:37.500Z,72.33
2022-09-20T05:38:17.190Z,72.21
2022-09-20T05:38:56.440Z,72.47
2022-09-20T05:39:36.675Z,72.27
2022-09-20T05:40:19.171Z,72.24
2022-09-20T05:41:10.465Z,72.44
2022-09-20T05:41:52.625Z,72.28
2022-09-20T05:42:37.566Z,72.24
2022-09-20T05:43:12.137Z,72.19
2022-09-20T05:43:54.466Z,72.41
2022-09-20T05:44:40.779Z,72.35
2022-09-20T05:45:38.672Z,72.25
2022-09-20T05:46:21.752Z,72.56
2022-09-20T05:47:03.960Z,72.07
2022-09-20T05:47:47.058Z,72.21
2022-09-20T05:48:26.522Z,72.14
2022-09-20T05:49:11.067Z,72.04
2022-09-20T05:49:56.263Z,72.20
2022-09-20T05:50:39.486Z,72.33
2022-09-20T05:51:30.238Z,72.11
2022-09-20T05:52:25.601Z,72.22
2022-09-20T05:53:10.959Z,72.21
2022-09-20T05:54:00.677Z,71.98
2022-09-20T05:55:07.779Z,71.93
2022-09-20T05:56:06.761Z,72.10
2022-09-20T05:56:52.596Z,71.96
2022-09-20T05:57:39.809Z,71.99
2022-09-20T05:58:29.801Z,71.96
2022-09-20T05:59:20.788Z,71.87
2022-09-20T06:00:05.041Z,71.56
2022-09-20T06:00:49.874Z,71.63
2022-09-20T06:01:29.946Z,71.49
2022-09-20T06:02:19.278Z,71.10
2022-09-20T06:02:59.672Z,71.64
2022-09-20T06:03:37.479Z,71.47
2022-09-20T06:04:20.792Z,71.50
2022-09-20T06:05:01.830Z,71.18
2022-09-20T06:05:48.719Z,71.39
2022-09-20T06:06:32.421Z,71.43
2022-09-20T06:07:19.430Z,71.36
2022-09-20T06:08:08.846Z,71.22
2022-09-20T06:09:05.982Z,71.78
2022-09-20T06:10:10.747Z,71.57
2022-09-20T06:11:08.693Z,71.46
2022-09-20T06:12:03.459Z,71.38
2022-09-20T06:12:48.412Z,71.31
2022-09-20T06:13:36.488Z,71.25
2022-09-20T06:14:21.643Z,71.47
2022-09-20T06:15:02.113Z,71.43
2022-09-20T06:15:45.029Z,71.20
2022-09-20T06:16:28.302Z,71.19
2022-09-20T06:17:14.768Z,71.43
2022-09-20T06:17:56.468Z,71.01
2022-09-20T06:18:39.294Z,71.07
2022-09-20T06:19:23.135Z,70.81
2022-09-20T06:20:13.275Z,70.93
2022-09-20T06:20:53.030Z,70.87
2022-09-20T06:21:42.828Z,70.89
2022-09-20T06:22:23.612Z,70.60
2022-09-20T06:22:58.361Z,70.88
2022-09-20T06:23:34.914Z,70.48
2022-09-20T06:24:18.826Z,70.65
2022-09-20T06:25:01.895Z,70.42
2022-09-20T06:25:43.022Z,70.31
2022-09-20T06:26:20.823Z,70.34
2022-09-20T06:26:57.575Z,70.45
2022-09-20T06:27:38.429Z,70.94
2022-09-20T06:28:16.454Z,70.48
2022-09-20T06:28:58.483Z,70.29
2022-09-20T06:29:35.184Z,70.20
2022-09-20T06:30:15.248Z,70.09
2022-09-20T06:30:52.256Z,70.56
2022-09-20T06:31:24.679Z,70.17
2022-09-20T06:31:56.971Z,70.20
2022-09-20T06:32:32.003Z,70.15
2022-09-20T06:33:15.012Z,70.46
2022-09-20T06:33:59.094Z,70.19
2022-09-20T06:34:31.774Z,70.14
2022-09-20T06:35:08.298Z,70.20
2022-09-20T06:35:44.134Z,70.02
2022-09-20T06:36:36.012Z,70.11
2022-09-20T06:37:33.807Z,70.12
2022-09-20T06:38:38.278Z,70.58
2022-09-20T06:39:35.613Z,70.59
2022-09-20T06:40:35.607Z,70.69
2022-09-20T06:41:26.229Z,70.22
2022-09-20T06:42:01.171Z,70.24
2022-09-20T06:42:34.384Z,70.58
2022-09-20T06:43:06.837Z,70.15
2022-09-20T06:43:41.852Z,70.13
2022-09-20T06:44:14.013Z,69.85
2022-09-20T06:44:48.717Z,70.01
2022-09-20T06:45:20.927Z,70.20
2022-09-20T06:45:53.062Z,69.92
2022-09-20T06:46:29.051Z,70.01
2022-09-20T06:47:01.853Z,69.90
2022-09-20T06:47:38.520Z,69.84
2022-09-20T06:48:15.330Z,70.12
2022-09-20T06:48:47.418Z,70.25
2022-09-20T06:49:19.863Z,70.00
2022-09-20T06:49:54.556Z,70.08
2022-09-20T06:50:26.832Z,69.97
2022-09-20T06:50:59.163Z,70.08
2022-09-20T06:51:38.052Z,70.21
2022-09-20T06:52:14.596Z,69.91
2022-09-20T06:52:47.574Z,70.27
2022-09-20T06:53:29.895Z,70.16
2022-09-20T06:54:02.356Z,69.92
2022-09-20T06:54:37.969Z,69.95
2022-09-20T06:55:18.529Z,70.34
2022-09-20T06:55:51.409Z,70.27
2022-09-20T06:56:29.716Z,70.22
2022-09-20T06:57:05.111Z,70.27
2022-09-20T06:57:38.738Z,69.74
2022-09-20T06:58:13.998Z,69.80
2022-09-20T06:58:46.230Z,70.03
2022-09-20T06:59:20.941Z,69.96
2022-09-20T06:59:53.110Z,70.42
2022-09-20T07:00:25.249Z,70.30
2022-09-20T07:01:00.058Z,70.02
2022-09-20T07:01:32.281Z,69.79
2022-09-20T07:02:08.350Z,69.67
2022-09-20T07:02:40.590Z,70.19
2022-09-20T07:03:13.178Z,70.18
2022-09-20T07:03:48.108Z,70.00
2022-09-20T07:04:20.446Z,70.25
2022-09-20T07:04:59.368Z,70.09
2022-09-20T07:05:31.581Z,70.27
2022-09-20T07:06:06.658Z,70.35
2022-09-20T07:06:38.786Z,70.12
2022-09-20T07:07:17.362Z,70.10
2022-09-20T07:07:52.504Z,69.85
2022-09-20T07:08:27.457Z,70.10
2022-09-20T07:09:02.170Z,70.03
2022-09-20T07:09:34.547Z,70.06
2022-09-20T07:10:07.011Z,70.42
2022-09-20T07:10:41.807Z,70.24
2022-09-20T07:11:16.568Z,70.21
2022-09-20T07:11:51.380Z,70.25
2022-09-20T07:12:23.482Z,70.21
2022-09-20T07:12:57.149Z,70.12
2022-09-20T07:13:31.824Z,70.20
2022-09-20T07:14:04.075Z,70.10
2022-09-20T07:14:36.702Z,70.08
2022-09-20T07:15:10.215Z,69.83
2022-09-20T07:15:44.911Z,70.28
2022-09-20T07:16:17.126Z,70.36
2022-09-20T07:16:49.601Z,70.26
2022-09-20T07:17:24.342Z,70.54
2022-09-20T07:17:56.813Z,70.08
2022-09-20T07:18:31.892Z,70.53
2022-09-20T07:19:06.077Z,70.17
2022-09-20T07:19:38.211Z,70.36
2022-09-20T07:20:15.060Z,70.47
2022-09-20T07:20:48.667Z,70.58
2022-09-20T07:21:24.330Z,70.63
2022-09-20T07:21:56.680Z,70.70
2022-09-20T07:22:28.861Z,70.65
2022-09-20T07:23:03.921Z,70.90
2022-09-20T07:23:38.833Z,71.00
2022-09-20T07:24:15.191Z,71.34
2022-09-20T07:24:48.351Z,70.92
2022-09-20T07:25:20.854Z,70.98
2022-09-20T07:25:57.920Z,71.23
2022-09-20T07:26:31.125Z,70.84
2022-09-20T07:27:05.216Z,70.93
2022-09-20T07:27:39.888Z,71.11
2022-09-20T07:28:12.092Z,70.88
2022-09-20T07:28:44.210Z,70.35
2022-09-20T07:29:18.906Z,70.57
2022-09-20T07:29:51.091Z,70.27
2022-09-20T07:30:26.370Z,70.65
2022-09-20T07:30:58.607Z,70.84
2022-09-20T07:31:30.884Z,71.04
2022-09-20T07:32:05.992Z,71.44
2022-09-20T07:32:38.116Z,71.74
2022-09-20T07:33:12.098Z,71.44
2022-09-20T07:33:47.034Z,71.56
2022-09-20T07:34:20.551Z,71.89
2022-09-20T07:34:52.881Z,72.11
2022-09-20T07:35:27.640Z,72.16
2022-09-20T07:35:59.795Z,72.14
2022-09-20T07:36:34.728Z,72.43
2022-09-20T07:37:06.818Z,72.53
2022-09-20T07:37:41.482Z,72.43
2022-09-20T07:38:17.306Z,72.05
2022-09-20T07:38:53.415Z,72.36
2022-09-20T07:39:25.856Z,72.48
2022-09-20T07:40:00.603Z,72.56
2022-09-20T07:40:32.818Z,72.08
2022-09-20T07:41:07.783Z,71.96
2022-09-20T07:41:39.906Z,72.19
2022-09-20T07:42:12.212Z,72.39
2022-09-20T07:42:46.917Z,72.46
2022-09-20T07:43:19.119Z,72.37
2022-09-20T07:43:51.380Z,71.89
2022-09-20T07:44:28.048Z,71.91
2022-09-20T07:45:02.928Z,71.99
2022-09-20T07:45:41.985Z,71.67
2022-09-20T07:46:14.279Z,71.93
2022-09-20T07:46:48.318Z,72.14
2022-09-20T07:47:25.409Z,72.17
2022-09-20T07:47:58.335Z,71.50
2022-09-20T07:48:34.201Z,71.79
2022-09-20T07:49:09.461Z,71.48
2022-09-20T07:49:41.628Z,71.50
2022-09-20T07:50:16.398Z,71.37
2022-09-20T07:50:51.431Z,71.59
2022-09-20T07:51:26.186Z,71.60
2022-09-20T07:51:58.842Z,71.28
2022-09-20T07:52:31.022Z,71.27
2022-09-20T07:53:06.611Z,71.23
2022-09-20T07:53:39.873Z,70.82
2022-09-20T07:54:17.450Z,70.50
2022-09-20T07:54:50.179Z,70.71
2022-09-20T07:55:24.957Z,70.65
2022-09-20T07:55:58.830Z,70.51
2022-09-20T07:56:30.918Z,70.59
2022-09-20T07:57:05.854Z,70.34
2022-09-20T07:57:38.720Z,70.10
2022-09-20T07:58:13.387Z,70.43
2022-09-20T07:58:48.630Z,70.34
2022-09-20T07:59:24.385Z,69.89
2022-09-20T07:59:59.034Z,69.81
2022-09-20T08:00:31.151Z,69.72
2022-09-20T08:01:10.010Z,69.78
2022-09-20T08:01:43.170Z,69.88
2022-09-20T08:02:19.185Z,69.23
2022-09-20T08:02:59.363Z,69.12
2022-09-20T08:03:35.634Z,69.45
2022-09-20T08:04:08.962Z,69.30
2022-09-20T08:04:43.670Z,69.29
2022-09-20T08:05:15.875Z,68.97
2022-09-20T08:05:49.144Z,68.90
2022-09-20T08:06:23.854Z,68.71
2022-09-20T08:06:57.149Z,69.21
2022-09-20T08:07:32.612Z,68.88
2022-09-20T08:08:04.703Z,69.12
2022-09-20T08:08:41.222Z,68.76
2022-09-20T08:09:15.971Z,69.04
2022-09-20T08:09:50.671Z,68.90
2022-09-20T08:10:22.763Z,68.93
2022-09-20T08:11:05.498Z,68.88
2022-09-20T08:11:38.972Z,68.63
2022-09-20T08:14:06.150Z,68.86
2022-09-20T08:14:38.995Z,68.42
2022-09-20T08:15:14.107Z,68.16
2022-09-20T08:15:46.302Z,68.55
2022-09-20T08:16:19.426Z,68.22
2022-09-20T08:16:54.904Z,68.48
2022-09-20T08:17:27.103Z,68.20
2022-09-20T08:17:59.176Z,68.39
2022-09-20T08:18:34.530Z,68.37
2022-09-20T08:19:06.806Z,68.25
2022-09-20T08:19:40.331Z,68.03
2022-09-20T08:20:15.610Z,68.31
2022-09-20T08:20:48.818Z,68.36
2022-09-20T08:21:20.949Z,68.30
2022-09-20T08:21:56.115Z,68.36
2022-09-20T08:22:28.295Z,68.58
2022-09-20T08:23:22.525Z,68.75
2022-09-20T08:23:55.432Z,68.62
2022-09-20T08:24:33.184Z,68.92
2022-09-20T08:25:07.258Z,69.20
2022-09-20T08:25:42.020Z,68.87
2022-09-20T08:26:18.040Z,69.11
2022-09-20T08:26:50.127Z,69.13
2022-09-20T08:27:24.851Z,69.12
2022-09-20T08:27:56.960Z,69.45
2022-09-20T08:28:29.265Z,69.00
2022-09-20T08:29:05.387Z,69.44
2022-09-20T08:29:37.543Z,69.67
2022-09-20T08:30:14.126Z,69.36
2022-09-20T08:30:46.214Z,69.55
2022-09-20T08:31:20.433Z,69.10
2022-09-20T08:31:58.301Z,69.37
2022-09-20T08:32:30.445Z,69.47
2022-09-20T08:33:04.952Z,68.86
2022-09-20T08:33:40.079Z,69.08
2022-09-20T08:34:15.043Z,68.83
2022-09-20T08:34:50.099Z,69.31
2022-09-20T08:35:22.957Z,69.10
2022-09-20T08:35:57.744Z,68.80
2022-09-20T08:36:36.777Z,69.29
2022-09-20T08:37:09.263Z,68.99
2022-09-20T08:37:45.587Z,69.37
2022-09-20T08:40:09.844Z,69.45
2022-09-20T08:40:44.765Z,69.53
2022-09-20T08:41:22.251Z,69.66
2022-09-20T08:41:58.690Z,69.76
2022-09-20T08:42:42.110Z,69.50
2022-09-20T08:43:22.309Z,69.79
2022-09-20T08:44:00.814Z,69.45
2022-09-20T08:44:35.958Z,69.62
2022-09-20T08:45:34.467Z,69.75
2022-09-20T08:46:14.017Z,69.79
2022-09-20T08:46:53.068Z,69.52
2022-09-20T08:47:28.058Z,69.97
2022-09-20T08:48:06.129Z,69.69
2022-09-20T08:48:38.334Z,70.00
2022-09-20T08:49:19.278Z,69.88
2022-09-20T08:49:57.382Z,69.52
2022-09-20T08:50:29.706Z,69.37
2022-09-20T08:51:05.668Z,69.51
2022-09-20T08:51:42.883Z,69.49
2022-09-20T08:52:18.040Z,69.75
2022-09-20T08:53:00.263Z,69.57
2022-09-20T08:53:34.067Z,69.70
2022-09-20T08:54:16.381Z,69.52
2022-09-20T08:54:48.530Z,69.70
2022-09-20T08:55:36.460Z,69.29
2022-09-20T08:56:09.472Z,69.33
2022-09-20T08:56:44.681Z,69.47
2022-09-20T08:57:20.682Z,69.07
2022-09-20T08:57:57.637Z,69.46
2022-09-20T08:58:29.729Z,68.94
2022-09-20T08:59:01.892Z,68.78